sensor_id;sensor_type;location;lat;lon;timestamp;pressure;altitude;pressure_sealevel;temperature;humidity
45078;BME280;60508;42.622;25.416;2023-03-01T00:02:26;97490.63;;;7.47;88.36
45078;BME280;60508;42.622;25.416;2023-03-01T00:04:52;97490.63;;;7.54;87.98
45078;BME280;60508;42.622;25.416;2023-03-01T00:07:18;97486.94;;;7.48;88.04
45078;BME280;60508;42.622;25.416;2023-03-01T00:09:43;97476.63;;;7.52;88.45
45078;BME280;60508;42.622;25.416;2023-03-01T00:12:11;97471.69;;;7.48;89.30
45078;BME280;60508;42.622;25.416;2023-03-01T00:14:38;97462.66;;;7.56;88.31
45078;BME280;60508;42.622;25.416;2023-03-01T00:17:04;97448.25;;;7.50;87.76
45078;BME280;60508;42.622;25.416;2023-03-01T00:19:30;97447.44;;;7.50;87.85
45078;BME280;60508;42.622;25.416;2023-03-01T00:21:58;97449.31;;;7.43;88.44
45078;BME280;60508;42.622;25.416;2023-03-01T00:24:23;97439.22;;;7.45;88.69
45078;BME280;60508;42.622;25.416;2023-03-01T00:26:53;97427.06;;;7.49;88.98
45078;BME280;60508;42.622;25.416;2023-03-01T00:29:22;97427.69;;;7.51;88.99
45078;BME280;60508;42.622;25.416;2023-03-01T00:31:48;97425.84;;;7.45;88.70
45078;BME280;60508;42.622;25.416;2023-03-01T00:34:14;97417.41;;;7.48;88.68
45078;BME280;60508;42.622;25.416;2023-03-01T00:36:40;97407.72;;;7.47;88.18
45078;BME280;60508;42.622;25.416;2023-03-01T00:39:11;97407.91;;;7.59;88.01
45078;BME280;60508;42.622;25.416;2023-03-01T00:41:37;97405.88;;;7.61;87.72
45078;BME280;60508;42.622;25.416;2023-03-01T00:44:03;97405.03;;;7.60;87.77
45078;BME280;60508;42.622;25.416;2023-03-01T00:46:29;97392.28;;;7.56;87.16
45078;BME280;60508;42.622;25.416;2023-03-01T00:48:56;97398.50;;;7.49;86.67
45078;BME280;60508;42.622;25.416;2023-03-01T00:51:26;97397.91;;;7.07;88.10
45078;BME280;60508;42.622;25.416;2023-03-01T00:53:56;97406.53;;;7.16;88.41
45078;BME280;60508;42.622;25.416;2023-03-01T00:56:22;97405.50;;;7.17;88.41
45078;BME280;60508;42.622;25.416;2023-03-01T00:58:49;97412.06;;;7.35;87.65
45078;BME280;60508;42.622;25.416;2023-03-01T01:01:18;97408.56;;;7.27;87.21
45078;BME280;60508;42.622;25.416;2023-03-01T01:03:58;97413.50;;;7.30;87.42
45078;BME280;60508;42.622;25.416;2023-03-01T01:06:45;97417.00;;;7.24;87.39
45078;BME280;60508;42.622;25.416;2023-03-01T01:09:14;97416.41;;;7.22;87.92
45078;BME280;60508;42.622;25.416;2023-03-01T01:11:47;97415.16;;;7.11;87.56
45078;BME280;60508;42.622;25.416;2023-03-01T01:14:14;97420.50;;;7.11;87.83
45078;BME280;60508;42.622;25.416;2023-03-01T01:16:40;97425.03;;;7.11;87.83
45078;BME280;60508;42.622;25.416;2023-03-01T01:19:06;97429.75;;;7.22;87.19
45078;BME280;60508;42.622;25.416;2023-03-01T01:21:32;97432.63;;;7.27;87.22
45078;BME280;60508;42.622;25.416;2023-03-01T01:23:58;97429.13;;;7.13;87.21
45078;BME280;60508;42.622;25.416;2023-03-01T01:26:29;97428.94;;;7.08;88.06
45078;BME280;60508;42.622;25.416;2023-03-01T01:28:56;97438.41;;;7.18;87.60
45078;BME280;60508;42.622;25.416;2023-03-01T01:31:24;97437.78;;;7.16;87.54
45078;BME280;60508;42.622;25.416;2023-03-01T01:33:51;97428.72;;;7.17;87.46
45078;BME280;60508;42.622;25.416;2023-03-01T01:36:17;97437.56;;;7.24;86.97
45078;BME280;60508;42.622;25.416;2023-03-01T01:38:43;97425.84;;;7.31;86.43
45078;BME280;60508;42.622;25.416;2023-03-01T01:41:10;97414.75;;;7.21;86.71
45078;BME280;60508;42.622;25.416;2023-03-01T01:43:46;97411.03;;;7.29;86.88
45078;BME280;60508;42.622;25.416;2023-03-01T01:46:33;97402.00;;;7.37;85.64
45078;BME280;60508;42.622;25.416;2023-03-01T01:49:06;97413.69;;;7.42;85.43
45078;BME280;60508;42.622;25.416;2023-03-01T01:51:40;97408.16;;;7.30;85.54
45078;BME280;60508;42.622;25.416;2023-03-01T01:54:21;97405.28;;;7.32;85.91
45078;BME280;60508;42.622;25.416;2023-03-01T01:56:58;97407.94;;;7.39;85.07
45078;BME280;60508;42.622;25.416;2023-03-01T01:59:27;97408.16;;;7.37;84.03
45078;BME280;60508;42.622;25.416;2023-03-01T02:01:54;97398.91;;;7.26;84.25
45078;BME280;60508;42.622;25.416;2023-03-01T02:04:21;97397.88;;;7.27;84.75
45078;BME280;60508;42.622;25.416;2023-03-01T02:06:58;97407.56;;;7.35;84.75
45078;BME280;60508;42.622;25.416;2023-03-01T02:09:26;97411.63;;;7.64;82.93
45078;BME280;60508;42.622;25.416;2023-03-01T02:11:54;97396.34;;;7.78;81.76
45078;BME280;60508;42.622;25.416;2023-03-01T02:14:20;97415.72;;;7.67;82.13
45078;BME280;60508;42.622;25.416;2023-03-01T02:16:47;97419.03;;;7.49;83.05
45078;BME280;60508;42.622;25.416;2023-03-01T02:22:30;97406.91;;;7.33;84.46
45078;BME280;60508;42.622;25.416;2023-03-01T02:25:12;97400.16;;;7.24;85.17
45078;BME280;60508;42.622;25.416;2023-03-01T02:28:08;97402.00;;;7.30;85.98
45078;BME280;60508;42.622;25.416;2023-03-01T02:30:36;97392.31;;;7.42;85.32
45078;BME280;60508;42.622;25.416;2023-03-01T02:33:04;97403.41;;;7.46;84.90
45078;BME280;60508;42.622;25.416;2023-03-01T02:35:33;97405.47;;;7.37;85.01
45078;BME280;60508;42.622;25.416;2023-03-01T02:38:02;97405.28;;;7.25;85.00
45078;BME280;60508;42.622;25.416;2023-03-01T02:40:30;97409.59;;;7.40;85.14
45078;BME280;60508;42.622;25.416;2023-03-01T02:42:58;97407.13;;;7.38;85.24
45078;BME280;60508;42.622;25.416;2023-03-01T02:45:26;97409.59;;;7.26;85.92
45078;BME280;60508;42.622;25.416;2023-03-01T02:47:56;97406.28;;;7.38;85.62
45078;BME280;60508;42.622;25.416;2023-03-01T02:53:35;97409.59;;;7.40;85.13
45078;BME280;60508;42.622;25.416;2023-03-01T02:56:05;97410.41;;;7.47;85.19
45078;BME280;60508;42.622;25.416;2023-03-01T02:58:34;97405.47;;;7.44;85.06
45078;BME280;60508;42.622;25.416;2023-03-01T03:01:12;97401.78;;;7.45;85.05
45078;BME280;60508;42.622;25.416;2023-03-01T03:03:41;97407.94;;;7.45;84.79
45078;BME280;60508;42.622;25.416;2023-03-01T03:06:08;97400.97;;;7.31;84.85
45078;BME280;60508;42.622;25.416;2023-03-01T03:08:34;97399.09;;;7.25;85.49
45078;BME280;60508;42.622;25.416;2023-03-01T03:11:00;97394.59;;;7.25;85.66
45078;BME280;60508;42.622;25.416;2023-03-01T03:13:26;97388.84;;;7.35;84.68
45078;BME280;60508;42.622;25.416;2023-03-01T03:15:55;97391.72;;;7.34;84.26
45078;BME280;60508;42.622;25.416;2023-03-01T03:18:24;97389.66;;;7.29;84.40
45078;BME280;60508;42.622;25.416;2023-03-01T03:20:54;97393.75;;;7.25;84.79
45078;BME280;60508;42.622;25.416;2023-03-01T03:23:21;97401.19;;;7.23;84.90
45078;BME280;60508;42.622;25.416;2023-03-01T03:25:50;97398.09;;;7.12;85.73
45078;BME280;60508;42.622;25.416;2023-03-01T03:28:17;97389.88;;;7.07;85.86
45078;BME280;60508;42.622;25.416;2023-03-01T03:30:43;97392.97;;;7.18;85.67
45078;BME280;60508;42.622;25.416;2023-03-01T03:33:11;97391.75;;;7.20;85.33
45078;BME280;60508;42.622;25.416;2023-03-01T03:35:45;97394.19;;;7.15;85.64
45078;BME280;60508;42.622;25.416;2023-03-01T03:38:14;97397.28;;;7.05;85.81
45078;BME280;60508;42.622;25.416;2023-03-01T03:41:17;97389.03;;;7.07;85.77
45078;BME280;60508;42.622;25.416;2023-03-01T03:43:38;97400.16;;;7.24;85.09
45078;BME280;60508;42.622;25.416;2023-03-01T03:46:05;97402.41;;;7.27;84.77
45078;BME280;60508;42.622;25.416;2023-03-01T03:48:37;97404.25;;;7.13;85.32
45078;BME280;60508;42.622;25.416;2023-03-01T03:51:04;97407.53;;;7.22;84.83
45078;BME280;60508;42.622;25.416;2023-03-01T03:53:33;97402.00;;;7.30;84.72
45078;BME280;60508;42.622;25.416;2023-03-01T03:55:59;97394.59;;;7.25;84.74
45078;BME280;60508;42.622;25.416;2023-03-01T03:58:25;97399.53;;;7.35;84.14
45078;BME280;60508;42.622;25.416;2023-03-01T04:00:54;97402.00;;;7.17;84.75
45078;BME280;60508;42.622;25.416;2023-03-01T04:03:22;97405.09;;;7.27;84.32
45078;BME280;60508;42.622;25.416;2023-03-01T04:05:49;97402.81;;;7.24;84.70
45078;BME280;60508;42.622;25.416;2023-03-01T04:08:20;97401.19;;;7.16;84.99
45078;BME280;60508;42.622;25.416;2023-03-01T04:10:49;97408.19;;;7.24;85.26
45078;BME280;60508;42.622;25.416;2023-03-01T04:13:19;97403.66;;;7.24;85.10
45078;BME280;60508;42.622;25.416;2023-03-01T04:15:49;97410.84;;;7.24;84.83
45078;BME280;60508;42.622;25.416;2023-03-01T04:18:17;97415.38;;;7.30;84.66
45078;BME280;60508;42.622;25.416;2023-03-01T04:20:44;97406.13;;;7.19;85.06
45078;BME280;60508;42.622;25.416;2023-03-01T04:23:15;97398.53;;;7.03;85.99
45078;BME280;60508;42.622;25.416;2023-03-01T04:25:49;97402.81;;;7.10;86.02
45078;BME280;60508;42.622;25.416;2023-03-01T04:28:27;97401.78;;;7.11;86.38
45078;BME280;60508;42.622;25.416;2023-03-01T04:30:55;97394.81;;;7.17;86.18
45078;BME280;60508;42.622;25.416;2023-03-01T04:33:21;97406.53;;;7.16;85.88
45078;BME280;60508;42.622;25.416;2023-03-01T04:35:48;97393.97;;;7.17;85.92
45078;BME280;60508;42.622;25.416;2023-03-01T04:38:18;97388.44;;;6.98;86.53
45078;BME280;60508;42.622;25.416;2023-03-01T04:40:44;97389.25;;;7.12;86.78
45078;BME280;60508;42.622;25.416;2023-03-01T04:43:11;97388.44;;;7.11;86.42
45078;BME280;60508;42.622;25.416;2023-03-01T04:45:40;97392.34;;;7.02;85.93
45078;BME280;60508;42.622;25.416;2023-03-01T04:48:06;97395.66;;;6.98;86.56
45078;BME280;60508;42.622;25.416;2023-03-01T04:50:32;97394.19;;;6.88;87.84
45078;BME280;60508;42.622;25.416;2023-03-01T04:52:58;97381.66;;;6.89;88.09
45078;BME280;60508;42.622;25.416;2023-03-01T04:55:28;97379.78;;;6.83;88.28
45078;BME280;60508;42.622;25.416;2023-03-01T04:57:54;97371.16;;;6.87;88.95
45078;BME280;60508;42.622;25.416;2023-03-01T05:00:22;97371.38;;;6.86;89.15
45078;BME280;60508;42.622;25.416;2023-03-01T05:02:54;97374.88;;;7.00;88.89
45078;BME280;60508;42.622;25.416;2023-03-01T05:05:27;97372.41;;;6.98;88.42
45078;BME280;60508;42.622;25.416;2023-03-01T05:07:59;97380.03;;;6.94;88.00
45078;BME280;60508;42.622;25.416;2023-03-01T05:10:28;97391.31;;;6.90;88.10
45078;BME280;60508;42.622;25.416;2023-03-01T05:12:58;97385.53;;;6.53;89.00
45078;BME280;60508;42.622;25.416;2023-03-01T05:15:28;97394.59;;;6.72;89.63
45078;BME280;60508;42.622;25.416;2023-03-01T05:17:58;97388.84;;;6.82;89.23
45078;BME280;60508;42.622;25.416;2023-03-01T05:20:29;97392.75;;;6.86;88.55
45078;BME280;60508;42.622;25.416;2023-03-01T05:22:58;97395.00;;;6.89;88.24
45078;BME280;60508;42.622;25.416;2023-03-01T05:25:24;97390.69;;;6.81;88.85
45078;BME280;60508;42.622;25.416;2023-03-01T05:27:50;97397.69;;;6.89;88.78
45078;BME280;60508;42.622;25.416;2023-03-01T05:30:17;97401.16;;;6.89;89.09
45078;BME280;60508;42.622;25.416;2023-03-01T05:32:49;97390.28;;;6.84;89.38
45078;BME280;60508;42.622;25.416;2023-03-01T05:35:22;97395.66;;;6.98;89.06
45078;BME280;60508;42.622;25.416;2023-03-01T05:37:48;97395.00;;;6.95;88.88
45078;BME280;60508;42.622;25.416;2023-03-01T05:40:20;97396.88;;;6.88;88.64
45078;BME280;60508;42.622;25.416;2023-03-01T05:42:52;97387.84;;;6.96;87.82
45078;BME280;60508;42.622;25.416;2023-03-01T05:45:20;97398.09;;;6.99;87.90
45078;BME280;60508;42.622;25.416;2023-03-01T05:47:47;97400.16;;;6.97;88.14
45078;BME280;60508;42.622;25.416;2023-03-01T05:50:23;97397.06;;;7.07;88.07
45078;BME280;60508;42.622;25.416;2023-03-01T05:53:14;97407.56;;;6.95;88.06
45078;BME280;60508;42.622;25.416;2023-03-01T05:55:39;97401.00;;;6.98;88.42
45078;BME280;60508;42.622;25.416;2023-03-01T05:58:08;97409.81;;;6.98;88.51
45078;BME280;60508;42.622;25.416;2023-03-01T06:00:35;97399.53;;;6.95;88.96
45078;BME280;60508;42.622;25.416;2023-03-01T06:03:02;97400.56;;;6.94;89.01
45078;BME280;60508;42.622;25.416;2023-03-01T06:05:29;97400.38;;;7.09;88.83
45078;BME280;60508;42.622;25.416;2023-03-01T06:07:58;97405.06;;;7.13;88.21
45078;BME280;60508;42.622;25.416;2023-03-01T06:10:25;97400.78;;;7.19;87.96
45078;BME280;60508;42.622;25.416;2023-03-01T06:12:51;97404.66;;;7.10;87.67
45078;BME280;60508;42.622;25.416;2023-03-01T06:15:17;97410.00;;;7.10;88.42
45078;BME280;60508;42.622;25.416;2023-03-01T06:17:44;97404.47;;;7.18;87.78
45078;BME280;60508;42.622;25.416;2023-03-01T06:20:14;97410.41;;;7.13;87.91
45078;BME280;60508;42.622;25.416;2023-03-01T06:22:41;97409.59;;;7.20;87.61
45078;BME280;60508;42.622;25.416;2023-03-01T06:25:08;97413.31;;;7.32;86.65
45078;BME280;60508;42.622;25.416;2023-03-01T06:27:34;97409.59;;;7.26;86.60
45078;BME280;60508;42.622;25.416;2023-03-01T06:30:00;97412.69;;;7.30;86.32
45078;BME280;60508;42.622;25.416;2023-03-01T06:32:26;97420.06;;;7.35;86.11
45078;BME280;60508;42.622;25.416;2023-03-01T06:34:52;97419.25;;;7.34;86.31
45078;BME280;60508;42.622;25.416;2023-03-01T06:37:17;97413.72;;;7.29;86.83
45078;BME280;60508;42.622;25.416;2023-03-01T06:39:44;97410.41;;;7.40;85.88
45078;BME280;60508;42.622;25.416;2023-03-01T06:42:10;97415.53;;;7.48;86.18
45078;BME280;60508;42.622;25.416;2023-03-01T06:44:36;97416.34;;;7.49;85.91
45078;BME280;60508;42.622;25.416;2023-03-01T06:47:03;97418.81;;;7.57;84.60
45078;BME280;60508;42.622;25.416;2023-03-01T06:49:29;97412.47;;;7.25;84.60
45078;BME280;60508;42.622;25.416;2023-03-01T06:51:56;97420.09;;;7.21;85.99
45078;BME280;60508;42.622;25.416;2023-03-01T06:54:22;97421.13;;;7.27;85.87
45078;BME280;60508;42.622;25.416;2023-03-01T06:56:50;97419.47;;;7.32;85.31
45078;BME280;60508;42.622;25.416;2023-03-01T06:59:17;97418.03;;;7.37;85.42
45078;BME280;60508;42.622;25.416;2023-03-01T07:01:43;97421.53;;;7.30;85.42
45078;BME280;60508;42.622;25.416;2023-03-01T07:04:10;97429.31;;;7.45;84.90
45078;BME280;60508;42.622;25.416;2023-03-01T07:06:37;97421.91;;;7.47;84.51
45078;BME280;60508;42.622;25.416;2023-03-01T07:09:02;97426.84;;;7.50;84.54
45078;BME280;60508;42.622;25.416;2023-03-01T07:11:29;97429.09;;;7.54;84.35
45078;BME280;60508;42.622;25.416;2023-03-01T07:13:55;97423.34;;;7.63;83.34
45078;BME280;60508;42.622;25.416;2023-03-01T07:16:22;97421.69;;;7.56;83.62
45078;BME280;60508;42.622;25.416;2023-03-01T07:18:49;97430.34;;;7.58;83.42
45078;BME280;60508;42.622;25.416;2023-03-01T07:21:15;97420.88;;;7.62;83.05
45078;BME280;60508;42.622;25.416;2023-03-01T07:23:42;97429.72;;;7.62;83.15
45078;BME280;60508;42.622;25.416;2023-03-01T07:26:09;97435.09;;;7.62;83.25
45078;BME280;60508;42.622;25.416;2023-03-01T07:28:35;97436.31;;;7.60;83.09
45078;BME280;60508;42.622;25.416;2023-03-01T07:31:05;97421.28;;;7.52;82.80
45078;BME280;60508;42.622;25.416;2023-03-01T07:33:32;97419.47;;;7.53;82.87
45078;BME280;60508;42.622;25.416;2023-03-01T07:35:59;97422.31;;;7.58;83.42
45078;BME280;60508;42.622;25.416;2023-03-01T07:38:27;97420.28;;;7.53;83.81
45078;BME280;60508;42.622;25.416;2023-03-01T07:40:57;97414.50;;;7.63;83.15
45078;BME280;60508;42.622;25.416;2023-03-01T07:43:23;97410.16;;;7.62;83.92
45078;BME280;60508;42.622;25.416;2023-03-01T07:45:49;97398.63;;;7.68;83.51
45078;BME280;60508;42.622;25.416;2023-03-01T07:48:16;97398.63;;;7.75;83.83
45078;BME280;60508;42.622;25.416;2023-03-01T07:50:42;97406.84;;;7.73;83.78
45078;BME280;60508;42.622;25.416;2023-03-01T07:53:09;97398.06;;;7.53;83.68
45078;BME280;60508;42.622;25.416;2023-03-01T07:55:36;97399.47;;;7.75;83.87
45078;BME280;60508;42.622;25.416;2023-03-01T07:58:02;97413.72;;;7.29;84.25
45078;BME280;60508;42.622;25.416;2023-03-01T08:00:28;97410.44;;;7.34;85.26
45078;BME280;60508;42.622;25.416;2023-03-01T08:02:54;97402.59;;;7.39;84.55
45078;BME280;60508;42.622;25.416;2023-03-01T08:05:20;97419.47;;;7.53;84.83
45078;BME280;60508;42.622;25.416;2023-03-01T08:07:48;97407.47;;;7.68;83.51
45078;BME280;60508;42.622;25.416;2023-03-01T08:10:14;97400.03;;;7.84;83.47
45078;BME280;60508;42.622;25.416;2023-03-01T08:12:39;97403.56;;;7.71;82.53
45078;BME280;60508;42.622;25.416;2023-03-01T08:15:06;97416.47;;;7.94;82.15
45078;BME280;60508;42.622;25.416;2023-03-01T08:17:33;97401.88;;;7.90;82.58
45078;BME280;60508;42.622;25.416;2023-03-01T08:19:59;97404.59;;;7.70;82.05
45078;BME280;60508;42.622;25.416;2023-03-01T08:22:25;97405.63;;;7.76;82.55
45078;BME280;60508;42.622;25.416;2023-03-01T08:24:51;97403.09;;;7.88;82.54
45078;BME280;60508;42.622;25.416;2023-03-01T08:27:17;97400.81;;;8.04;82.74
45078;BME280;60508;42.622;25.416;2023-03-01T08:29:43;97407.78;;;8.12;82.19
45078;BME280;60508;42.622;25.416;2023-03-01T08:32:09;97408.44;;;7.94;81.62
45078;BME280;60508;42.622;25.416;2023-03-01T08:34:37;97400.63;;;7.99;82.21
45078;BME280;60508;42.622;25.416;2023-03-01T08:37:04;97410.88;;;8.02;82.19
45078;BME280;60508;42.622;25.416;2023-03-01T08:39:30;97413.94;;;8.13;81.56
45078;BME280;60508;42.622;25.416;2023-03-01T08:41:56;97410.88;;;8.09;81.27
45078;BME280;60508;42.622;25.416;2023-03-01T08:44:23;97408.38;;;8.14;81.01
45078;BME280;60508;42.622;25.416;2023-03-01T08:46:50;97411.03;;;8.21;80.06
45078;BME280;60508;42.622;25.416;2023-03-01T08:49:19;97407.75;;;8.19;80.22
45078;BME280;60508;42.622;25.416;2023-03-01T08:51:46;97411.44;;;8.18;80.76
45078;BME280;60508;42.622;25.416;2023-03-01T08:54:16;97409.69;;;7.92;80.61
45078;BME280;60508;42.622;25.416;2023-03-01T08:56:44;97414.22;;;7.98;81.57
45078;BME280;60508;42.622;25.416;2023-03-01T08:59:14;97405.09;;;8.05;81.72
45078;BME280;60508;42.622;25.416;2023-03-01T09:01:41;97411.47;;;8.11;80.99
45078;BME280;60508;42.622;25.416;2023-03-01T09:04:11;97413.75;;;8.08;80.56
45078;BME280;60508;42.622;25.416;2023-03-01T09:06:38;97409.63;;;8.05;80.63
45078;BME280;60508;42.622;25.416;2023-03-01T09:09:06;97410.84;;;8.16;80.88
45078;BME280;60508;42.622;25.416;2023-03-01T09:11:33;97399.50;;;8.14;80.85
45078;BME280;60508;42.622;25.416;2023-03-01T09:14:00;97405.06;;;8.19;80.73
45078;BME280;60508;42.622;25.416;2023-03-01T09:16:26;97410.00;;;8.22;80.68
45078;BME280;60508;42.622;25.416;2023-03-01T09:18:54;97412.00;;;8.33;80.75
45078;BME280;60508;42.622;25.416;2023-03-01T09:21:22;97400.59;;;8.06;80.66
45078;BME280;60508;42.622;25.416;2023-03-01T09:23:48;97415.78;;;8.19;80.95
45078;BME280;60508;42.622;25.416;2023-03-01T09:26:18;97395.59;;;8.16;79.94
45078;BME280;60508;42.622;25.416;2023-03-01T09:28:49;97407.94;;;8.24;80.35
45078;BME280;60508;42.622;25.416;2023-03-01T09:31:17;97398.84;;;8.32;80.56
45078;BME280;60508;42.622;25.416;2023-03-01T09:33:48;97394.31;;;8.26;80.16
45078;BME280;60508;42.622;25.416;2023-03-01T09:36:20;97393.91;;;8.29;80.81
45078;BME280;60508;42.622;25.416;2023-03-01T09:38:48;97400.00;;;8.43;80.54
45078;BME280;60508;42.622;25.416;2023-03-01T09:43:52;97408.88;;;8.36;80.54
45078;BME280;60508;42.622;25.416;2023-03-01T09:46:22;97397.94;;;8.38;80.58
45078;BME280;60508;42.622;25.416;2023-03-01T09:48:56;97389.91;;;8.51;80.02
45078;BME280;60508;42.622;25.416;2023-03-01T09:51:35;97384.97;;;8.48;79.68
45078;BME280;60508;42.622;25.416;2023-03-01T09:54:02;97384.13;;;8.54;79.87
45078;BME280;60508;42.622;25.416;2023-03-01T09:56:34;97391.13;;;8.49;79.97
45078;BME280;60508;42.622;25.416;2023-03-01T10:01:59;97359.13;;;8.22;80.56
45078;BME280;60508;42.622;25.416;2023-03-01T10:04:50;97383.09;;;8.03;80.73
45078;BME280;60508;42.622;25.416;2023-03-01T10:09:47;97382.47;;;8.08;81.69
45078;BME280;60508;42.622;25.416;2023-03-01T10:12:17;97383.38;;;8.34;80.79
45078;BME280;60508;42.622;25.416;2023-03-01T10:15:00;97379.00;;;8.39;80.75
45078;BME280;60508;42.622;25.416;2023-03-01T10:17:38;97364.28;;;8.17;79.93
45078;BME280;60508;42.622;25.416;2023-03-01T10:20:33;97383.22;;;8.15;79.98
45078;BME280;60508;42.622;25.416;2023-03-01T10:23:08;97365.91;;;8.25;80.13
45078;BME280;60508;42.622;25.416;2023-03-01T10:25:53;97357.88;;;8.25;80.85
45078;BME280;60508;42.622;25.416;2023-03-01T10:29:07;97366.28;;;8.28;80.95
45078;BME280;60508;42.622;25.416;2023-03-01T10:31:20;97354.13;;;8.32;80.81
45078;BME280;60508;42.622;25.416;2023-03-01T10:33:48;97341.16;;;8.29;80.71
45078;BME280;60508;42.622;25.416;2023-03-01T10:36:18;97349.31;;;8.41;80.62
45078;BME280;60508;42.622;25.416;2023-03-01T10:38:53;97348.88;;;8.51;80.17
45078;BME280;60508;42.622;25.416;2023-03-01T10:41:21;97349.28;;;8.54;80.35
45078;BME280;60508;42.622;25.416;2023-03-01T10:43:55;97347.31;;;8.43;80.85
45078;BME280;60508;42.622;25.416;2023-03-01T10:46:28;97345.19;;;8.52;80.66
45078;BME280;60508;42.622;25.416;2023-03-01T10:51:47;97333.59;;;8.58;80.72
45078;BME280;60508;42.622;25.416;2023-03-01T10:54:21;97339.19;;;8.56;80.67
45078;BME280;60508;42.622;25.416;2023-03-01T10:56:59;97330.53;;;8.54;80.61
45078;BME280;60508;42.622;25.416;2023-03-01T10:59:28;97326.06;;;8.48;80.63
45078;BME280;60508;42.622;25.416;2023-03-01T11:02:49;97335.91;;;8.54;80.61
45078;BME280;60508;42.622;25.416;2023-03-01T11:07:54;97323.38;;;8.48;80.81
45078;BME280;60508;42.622;25.416;2023-03-01T11:10:28;97324.56;;;8.52;80.86
45078;BME280;60508;42.622;25.416;2023-03-01T11:13:18;97328.34;;;8.45;81.56
45078;BME280;60508;42.622;25.416;2023-03-01T11:16:07;97319.47;;;8.44;81.15
45078;BME280;60508;42.622;25.416;2023-03-01T11:18:36;97321.78;;;8.34;81.74
45078;BME280;60508;42.622;25.416;2023-03-01T11:21:03;97317.63;;;8.38;82.04
45078;BME280;60508;42.622;25.416;2023-03-01T11:23:32;97313.53;;;8.35;82.37
45078;BME280;60508;42.622;25.416;2023-03-01T11:26:01;97312.28;;;8.45;81.44
45078;BME280;60508;42.622;25.416;2023-03-01T11:28:29;97311.84;;;8.41;81.84
45078;BME280;60508;42.622;25.416;2023-03-01T11:30:57;97311.50;;;8.31;81.97
45078;BME280;60508;42.622;25.416;2023-03-01T11:33:40;97310.06;;;8.35;82.03
45078;BME280;60508;42.622;25.416;2023-03-01T11:36:18;97299.22;;;8.16;82.40
45078;BME280;60508;42.622;25.416;2023-03-01T11:38:49;97302.34;;;8.13;83.23
45078;BME280;60508;42.622;25.416;2023-03-01T11:41:19;97299.63;;;8.20;83.50
45078;BME280;60508;42.622;25.416;2023-03-01T11:43:59;97298.34;;;8.29;82.96
45078;BME280;60508;42.622;25.416;2023-03-01T12:08:35;97276.44;;;8.07;85.04
45078;BME280;60508;42.622;25.416;2023-03-01T12:19:53;97274.53;;;8.14;83.83
45078;BME280;60508;42.622;25.416;2023-03-01T12:22:35;97267.50;;;8.20;83.86
45078;BME280;60508;42.622;25.416;2023-03-01T12:35:58;97259.09;;;8.16;84.46
45078;BME280;60508;42.622;25.416;2023-03-01T12:38:49;97262.13;;;8.20;84.03
45078;BME280;60508;42.622;25.416;2023-03-01T12:41:38;97264.09;;;8.06;84.00
45078;BME280;60508;42.622;25.416;2023-03-01T12:44:33;97263.88;;;8.08;84.79
45078;BME280;60508;42.622;25.416;2023-03-01T12:50:17;97268.13;;;8.22;84.46
45078;BME280;60508;42.622;25.416;2023-03-01T12:52:54;97268.81;;;8.04;84.70
45078;BME280;60508;42.622;25.416;2023-03-01T12:55:34;97264.91;;;8.07;85.70
45078;BME280;60508;42.622;25.416;2023-03-01T13:03:48;97261.94;;;8.21;84.41
45078;BME280;60508;42.622;25.416;2023-03-01T13:11:35;97261.72;;;8.23;83.89
45078;BME280;60508;42.622;25.416;2023-03-01T13:16:52;97257.38;;;8.29;83.45
45078;BME280;60508;42.622;25.416;2023-03-01T13:19:20;97258.44;;;8.21;82.43
45078;BME280;60508;42.622;25.416;2023-03-01T13:21:48;97262.97;;;8.20;82.70
45078;BME280;60508;42.622;25.416;2023-03-01T13:29:58;97251.69;;;8.12;83.14
45078;BME280;60508;42.622;25.416;2023-03-01T13:32:33;97248.44;;;8.10;83.36
45078;BME280;60508;42.622;25.416;2023-03-01T13:37:41;97246.72;;;8.22;83.21
45078;BME280;60508;42.622;25.416;2023-03-01T13:42:56;97253.72;;;8.16;83.45
45078;BME280;60508;42.622;25.416;2023-03-01T13:45:42;97252.91;;;8.16;82.95
45078;BME280;60508;42.622;25.416;2023-03-01T13:48:10;97251.25;;;8.15;83.60
45078;BME280;60508;42.622;25.416;2023-03-01T13:50:48;97245.69;;;8.16;84.29
45078;BME280;60508;42.622;25.416;2023-03-01T13:53:19;97249.41;;;8.15;83.68
45078;BME280;60508;42.622;25.416;2023-03-01T13:55:49;97249.84;;;8.12;83.39
45078;BME280;60508;42.622;25.416;2023-03-01T13:58:56;97247.41;;;8.11;82.89
45078;BME280;60508;42.622;25.416;2023-03-01T14:01:29;97240.59;;;8.08;83.36
45078;BME280;60508;42.622;25.416;2023-03-01T14:03:56;97242.28;;;8.02;83.84
45078;BME280;60508;42.622;25.416;2023-03-01T14:06:28;97244.31;;;8.07;83.71
45078;BME280;60508;42.622;25.416;2023-03-01T14:09:18;97246.78;;;8.09;83.34
45078;BME280;60508;42.622;25.416;2023-03-01T14:12:13;97255.00;;;8.07;83.40
45078;BME280;60508;42.622;25.416;2023-03-01T14:20:27;97248.50;;;7.96;84.42
45078;BME280;60508;42.622;25.416;2023-03-01T14:22:58;97255.28;;;7.99;84.36
45078;BME280;60508;42.622;25.416;2023-03-01T14:25:33;97250.97;;;7.98;84.55
45078;BME280;60508;42.622;25.416;2023-03-01T14:28:24;97256.53;;;7.96;84.51
45078;BME280;60508;42.622;25.416;2023-03-01T14:30:59;97253.66;;;7.98;84.63
45078;BME280;60508;42.622;25.416;2023-03-01T14:33:36;97260.19;;;8.02;84.64
45078;BME280;60508;42.622;25.416;2023-03-01T14:36:13;97258.34;;;8.02;84.73
45078;BME280;60508;42.622;25.416;2023-03-01T14:38:42;97262.22;;;8.07;84.68
45078;BME280;60508;42.622;25.416;2023-03-01T14:41:12;97266.13;;;8.11;83.82
45078;BME280;60508;42.622;25.416;2023-03-01T14:43:57;97259.94;;;8.10;83.27
45078;BME280;60508;42.622;25.416;2023-03-01T14:46:40;97265.13;;;8.05;84.31
45078;BME280;60508;42.622;25.416;2023-03-01T14:49:10;97263.69;;;8.02;84.15
45078;BME280;60508;42.622;25.416;2023-03-01T14:51:38;97263.09;;;8.00;84.94
45078;BME280;60508;42.622;25.416;2023-03-01T14:54:27;97266.59;;;8.01;85.25